Time;durP1;ratioP1;P1;durP2;ratioP2;P2;SDS_P1;SDS_P2;PMS_P1;PMS_P2;Temp;Humidity;BMP_temperature;BMP_pressure;BME280_temperature;BME280_humidity;BME280_pressure;Samples;Min_cycle;Max_cycle;Signal;HPM_P1;HPM_P2
2021/08/01 04:01:52;;;;;;;12.40;9.87;;;17.00;99.90;;;;;;5353892;23;20962;-62
2021/08/01 04:04:18;;;;;;;11.30;9.93;;;16.90;99.90;;;;;;4995465;28;20450;-62
2021/08/01 04:06:45;;;;;;;11.93;10.00;;;16.90;99.90;;;;;;4995853;28;20935;-60
2021/08/01 04:09:12;;;;;;;14.70;10.53;;;16.90;99.90;;;;;;4995223;28;20482;-62
2021/08/01 04:11:43;;;;;;;15.63;11.73;;;16.90;99.90;;;;;;4995077;28;20476;-62
2021/08/01 04:14:10;;;;;;;17.23;10.93;;;16.80;99.90;;;;;;4995036;28;20504;-62
2021/08/01 04:16:37;;;;;;;12.93;11.60;;;16.80;99.90;;;;;;4995339;28;20458;-62
2021/08/01 04:19:08;;;;;;;12.83;11.20;;;16.70;99.90;;;;;;4995114;28;20540;-63
2021/08/01 04:21:35;;;;;;;11.33;10.33;;;16.70;99.90;;;;;;4994928;28;20601;-62
2021/08/01 04:24:02;;;;;;;12.13;10.80;;;16.70;99.90;;;;;;4995912;28;20461;-62
2021/08/01 04:26:29;;;;;;;11.77;10.77;;;16.70;99.90;;;;;;4994921;28;20458;-62
2021/08/01 04:28:56;;;;;;;11.60;10.37;;;16.60;99.90;;;;;;4994881;28;20482;-61
2021/08/01 04:31:22;;;;;;;11.80;10.73;;;16.70;99.90;;;;;;4994942;28;20478;-61
2021/08/01 04:33:49;;;;;;;12.23;10.33;;;16.70;99.90;;;;;;4994770;28;20458;-62
2021/08/01 04:36:17;;;;;;;12.70;10.70;;;16.70;99.90;;;;;;4994910;28;20461;-62
2021/08/01 04:38:44;;;;;;;12.17;11.07;;;16.70;99.90;;;;;;4994375;28;20819;-62
2021/08/01 04:41:10;;;;;;;11.80;10.63;;;16.70;99.90;;;;;;4994689;28;20481;-62
2021/08/01 04:43:37;;;;;;;11.07;9.80;;;16.80;99.90;;;;;;4994899;28;20478;-62
2021/08/01 04:46:04;;;;;;;13.80;10.00;;;16.90;99.90;;;;;;4995398;28;20458;-62
2021/08/01 04:48:30;;;;;;;11.27;10.07;;;16.90;99.90;;;;;;5005035;28;20488;-62
2021/08/01 04:50:57;;;;;;;11.70;10.00;;;16.90;99.90;;;;;;5000552;28;20477;-62
2021/08/01 04:53:25;;;;;;;10.73;9.17;;;16.90;99.90;;;;;;4998358;28;20469;-62
2021/08/01 04:55:52;;;;;;;10.57;9.57;;;17.00;99.90;;;;;;5000555;28;20457;-62
2021/08/01 04:58:18;;;;;;;9.60;8.70;;;17.00;99.90;;;;;;5001483;28;20461;-62
2021/08/01 05:00:45;;;;;;;10.07;9.27;;;17.10;99.90;;;;;;5014164;28;20469;-62
2021/08/01 05:03:12;;;;;;;10.90;9.80;;;17.10;99.90;;;;;;5004893;28;20445;-62
2021/08/01 05:05:38;;;;;;;9.87;8.97;;;17.10;99.90;;;;;;5005433;28;20516;-62
2021/08/01 05:08:06;;;;;;;10.07;9.27;;;17.10;99.90;;;;;;5001457;28;20474;-63
2021/08/01 05:10:34;;;;;;;9.77;8.83;;;17.10;99.90;;;;;;4996219;28;20477;-62
2021/08/01 05:13:05;;;;;;;9.87;9.03;;;17.20;99.90;;;;;;4995080;28;20461;-62
2021/08/01 05:15:32;;;;;;;8.93;8.23;;;17.20;99.90;;;;;;4999911;28;20442;-62
2021/08/01 05:17:58;;;;;;;9.33;8.63;;;17.20;99.90;;;;;;4998068;28;20453;-63
2021/08/01 05:20:25;;;;;;;10.30;9.20;;;17.10;99.90;;;;;;4998126;28;20468;-62
2021/08/01 05:22:51;;;;;;;12.50;11.30;;;17.00;99.90;;;;;;5000412;28;20461;-62
2021/08/01 05:25:18;;;;;;;11.13;10.07;;;16.90;99.90;;;;;;4994533;28;20524;-62
2021/08/01 05:27:46;;;;;;;12.53;11.20;;;16.70;99.90;;;;;;4994548;28;20453;-62
2021/08/01 05:30:13;;;;;;;14.83;13.10;;;16.70;99.90;;;;;;4994969;28;20458;-62
2021/08/01 05:32:40;;;;;;;13.37;12.00;;;16.70;99.90;;;;;;4994371;28;20454;-62
2021/08/01 05:35:08;;;;;;;13.60;12.20;;;16.70;99.90;;;;;;4994633;28;20464;-61
2021/08/01 05:37:34;;;;;;;13.53;12.33;;;16.80;99.90;;;;;;4994493;28;20454;-62
2021/08/01 05:40:01;;;;;;;12.20;11.00;;;16.90;99.90;;;;;;4995458;28;20450;-62
2021/08/01 05:42:28;;;;;;;12.20;11.00;;;17.00;99.90;;;;;;4997820;28;20478;-60
2021/08/01 05:44:56;;;;;;;11.27;10.23;;;17.00;99.90;;;;;;4999666;28;20464;-62
2021/08/01 05:47:22;;;;;;;12.00;11.00;;;17.10;99.90;;;;;;5002293;28;20473;-62
2021/08/01 05:49:49;;;;;;;11.60;10.50;;;17.20;99.90;;;;;;5001326;28;20477;-62
2021/08/01 05:52:16;;;;;;;9.30;8.50;;;17.30;99.90;;;;;;5001547;28;20484;-62
2021/08/01 05:54:43;;;;;;;10.50;9.40;;;17.10;99.90;;;;;;5000231;28;20453;-62
2021/08/01 05:57:10;;;;;;;11.90;8.43;;;17.20;99.90;;;;;;4995610;28;20485;-63
2021/08/01 05:59:37;;;;;;;8.23;7.63;;;17.10;99.90;;;;;;4998138;28;20454;-63
2021/08/01 06:02:05;;;;;;;9.73;8.93;;;17.10;99.90;;;;;;4997194;28;20495;-60
2021/08/01 06:04:32;;;;;;;8.43;7.73;;;17.30;99.90;;;;;;4998454;28;20827;-62
2021/08/01 06:06:58;;;;;;;9.87;9.03;;;17.40;99.90;;;;;;5002340;28;20461;-62
2021/08/01 06:09:25;;;;;;;8.50;7.90;;;17.50;99.90;;;;;;4997883;28;20481;-62
2021/08/01 06:11:52;;;;;;;8.07;7.47;;;17.60;99.90;;;;;;4996829;28;20478;-62
2021/08/01 06:14:18;;;;;;;9.70;8.17;;;17.70;99.90;;;;;;4997255;28;20467;-61
2021/08/01 06:16:45;;;;;;;7.40;6.80;;;17.80;99.90;;;;;;4997013;28;20493;-62
2021/08/01 06:19:13;;;;;;;8.80;7.13;;;17.90;99.90;;;;;;4997195;28;20454;-62
2021/08/01 06:21:40;;;;;;;7.83;7.13;;;17.90;99.90;;;;;;5005299;28;20488;-62
2021/08/01 06:24:06;;;;;;;7.10;6.60;;;17.90;99.90;;;;;;5007798;28;20511;-62
2021/08/01 06:26:33;;;;;;;7.13;6.60;;;17.90;99.90;;;;;;4999273;28;20457;-62
2021/08/01 06:29:00;;;;;;;7.27;6.20;;;17.90;99.90;;;;;;4998338;28;20462;-62
2021/08/01 06:31:27;;;;;;;7.57;6.97;;;17.90;99.90;;;;;;5015194;28;20457;-62
2021/08/01 06:33:53;;;;;;;16.10;7.50;;;18.00;99.90;;;;;;4997475;28;20437;-63
2021/08/01 06:36:22;;;;;;;8.27;7.03;;;17.90;99.90;;;;;;4996990;28;20449;-62
2021/08/01 06:38:48;;;;;;;8.47;7.30;;;17.90;99.90;;;;;;4996703;28;20918;-62
2021/08/01 06:41:15;;;;;;;8.40;7.57;;;18.00;99.90;;;;;;4996814;28;20477;-62
2021/08/01 06:43:42;;;;;;;7.40;6.70;;;18.00;99.90;;;;;;4996869;28;20457;-63
2021/08/01 06:46:08;;;;;;;8.13;6.50;;;18.20;99.90;;;;;;4996631;28;20439;-63
2021/08/01 06:48:35;;;;;;;7.90;7.20;;;18.20;99.90;;;;;;5006923;28;20493;-62
2021/08/01 06:51:02;;;;;;;7.37;6.67;;;18.30;99.90;;;;;;5005936;28;20469;-63
2021/08/01 06:53:31;;;;;;;8.53;7.67;;;18.40;99.90;;;;;;4996999;28;20489;-63
2021/08/01 06:55:58;;;;;;;6.90;6.30;;;18.40;99.90;;;;;;4996295;28;20445;-62
2021/08/01 06:58:25;;;;;;;6.73;6.23;;;18.50;99.90;;;;;;4996700;28;20447;-63
2021/08/01 07:00:53;;;;;;;8.70;6.87;;;18.50;99.90;;;;;;4997422;28;20513;-63
2021/08/01 07:03:20;;;;;;;7.37;6.77;;;18.50;99.90;;;;;;4997181;28;20458;-63
2021/08/01 07:05:47;;;;;;;7.03;5.80;;;18.60;99.90;;;;;;4997561;28;20449;-63
2021/08/01 07:08:14;;;;;;;7.10;6.40;;;18.50;99.90;;;;;;4996764;28;20465;-63
2021/08/01 07:10:42;;;;;;;10.67;6.70;;;18.60;99.90;;;;;;4995671;28;20481;-62
2021/08/01 07:13:10;;;;;;;6.47;5.87;;;18.50;99.90;;;;;;4995860;28;20457;-63
2021/08/01 07:15:37;;;;;;;7.43;6.77;;;18.50;99.90;;;;;;4996246;28;20454;-64
2021/08/01 07:18:05;;;;;;;8.23;6.00;;;18.30;99.90;;;;;;4996003;28;20442;-62
2021/08/01 07:20:32;;;;;;;6.50;6.00;;;18.20;99.90;;;;;;4996449;28;20835;-62
2021/08/01 07:22:59;;;;;;;8.37;7.67;;;18.00;99.90;;;;;;4996390;28;20461;-62
2021/08/01 07:25:26;;;;;;;6.70;6.10;;;18.10;99.90;;;;;;4997025;28;20453;-62
2021/08/01 07:27:55;;;;;;;7.60;6.43;;;18.10;99.90;;;;;;4996724;28;20847;-62
2021/08/01 07:30:22;;;;;;;7.40;6.70;;;18.00;99.90;;;;;;4995929;28;20486;-62
2021/08/01 07:32:49;;;;;;;6.60;6.10;;;18.00;99.90;;;;;;4995919;28;20453;-62
2021/08/01 07:35:15;;;;;;;8.20;6.00;;;18.00;99.90;;;;;;4995929;28;20458;-63
2021/08/01 07:37:42;;;;;;;12.93;7.50;;;18.10;99.90;;;;;;4995965;28;20457;-63
2021/08/01 07:40:09;;;;;;;7.93;7.20;;;18.10;99.90;;;;;;4995571;28;20438;-63
2021/08/01 07:42:36;;;;;;;7.20;6.60;;;18.20;99.90;;;;;;4996514;28;20852;-63
2021/08/01 07:45:06;;;;;;;8.50;5.90;;;18.20;99.90;;;;;;4995393;28;20461;-62
2021/08/01 07:47:34;;;;;;;7.83;6.80;;;18.30;99.90;;;;;;4995447;28;20454;-62
2021/08/01 07:50:02;;;;;;;8.37;6.17;;;18.40;99.90;;;;;;4995579;28;20481;-62
2021/08/01 07:52:30;;;;;;;12.17;6.20;;;18.40;99.90;;;;;;4995339;28;20535;-62
2021/08/01 07:54:57;;;;;;;11.33;7.20;;;18.40;99.90;;;;;;4995532;28;20555;-62
2021/08/01 07:57:25;;;;;;;6.97;6.40;;;18.50;99.90;;;;;;4995810;28;20481;-61
2021/08/01 07:59:52;;;;;;;6.60;5.70;;;18.50;99.90;;;;;;4996952;28;20461;-61
2021/08/01 08:02:20;;;;;;;9.40;5.60;;;18.60;99.90;;;;;;5009539;28;20488;-63
2021/08/01 08:04:47;;;;;;;8.83;5.87;;;18.60;99.90;;;;;;4997193;28;20458;-63
2021/08/01 08:07:14;;;;;;;8.23;5.93;;;18.60;99.90;;;;;;4995349;28;20462;-61
2021/08/01 08:09:41;;;;;;;6.20;5.60;;;18.60;99.90;;;;;;4995441;28;20489;-61
2021/08/01 08:12:08;;;;;;;13.40;6.60;;;18.60;99.90;;;;;;4995962;28;20477;-61
2021/08/01 08:14:36;;;;;;;8.27;6.93;;;18.60;99.90;;;;;;4994967;28;20939;-62
2021/08/01 08:17:03;;;;;;;6.90;6.30;;;18.50;99.90;;;;;;4995373;28;20464;-61
2021/08/01 08:19:31;;;;;;;7.00;5.43;;;18.50;99.90;;;;;;5000116;28;20456;-61
2021/08/01 08:21:59;;;;;;;8.13;5.97;;;18.60;99.90;;;;;;5008123;28;20817;-62
2021/08/01 08:24:27;;;;;;;6.30;5.43;;;18.70;99.90;;;;;;5010972;28;20460;-62
2021/08/01 08:26:54;;;;;;;10.00;5.73;;;18.70;99.90;;;;;;5003850;28;20437;-61
2021/08/01 08:29:23;;;;;;;5.40;5.00;;;19.00;99.90;;;;;;4995298;28;20485;-63
2021/08/01 08:31:51;;;;;;;5.60;5.10;;;19.20;99.90;;;;;;4994892;28;20473;-62
2021/08/01 08:34:18;;;;;;;5.57;5.17;;;19.30;99.90;;;;;;4995546;28;20573;-62
2021/08/01 08:36:49;;;;;;;6.87;5.20;;;19.40;99.90;;;;;;4995531;28;20448;-62
2021/08/01 08:39:17;;;;;;;5.60;5.10;;;19.50;99.90;;;;;;4994702;28;20933;-62
2021/08/01 08:41:44;;;;;;;6.00;5.50;;;19.60;99.90;;;;;;4995124;28;20553;-62
2021/08/01 08:44:11;;;;;;;7.07;5.80;;;19.70;99.90;;;;;;4996741;28;20453;-63
2021/08/01 08:46:39;;;;;;;6.37;5.60;;;19.80;99.90;;;;;;4996135;28;20449;-62
2021/08/01 08:49:09;;;;;;;4.87;4.50;;;19.90;99.90;;;;;;4994969;28;20460;-61
2021/08/01 08:51:38;;;;;;;5.33;4.83;;;20.00;99.90;;;;;;4995335;28;20510;-63
2021/08/01 08:54:10;;;;;;;7.30;4.67;;;20.20;99.90;;;;;;4996106;28;20508;-61
2021/08/01 08:56:38;;;;;;;5.17;4.77;;;20.00;99.90;;;;;;4995079;28;20453;-62
2021/08/01 08:59:05;;;;;;;4.73;4.00;;;20.10;99.90;;;;;;4994881;28;20516;-61
2021/08/01 09:01:32;;;;;;;4.83;4.43;;;20.00;99.90;;;;;;4994451;28;20520;-62
2021/08/01 09:03:59;;;;;;;5.53;5.10;;;20.10;99.90;;;;;;4995198;28;20458;-62
2021/08/01 09:06:26;;;;;;;6.53;5.27;;;20.20;99.90;;;;;;4996774;28;20469;-62
2021/08/01 09:08:52;;;;;;;5.20;4.90;;;20.40;99.90;;;;;;4995863;28;20851;-62
2021/08/01 09:11:20;;;;;;;6.83;5.63;;;20.60;99.90;;;;;;4995451;28;20811;-62
2021/08/01 09:13:49;;;;;;;5.87;5.27;;;20.60;99.90;;;;;;4994800;28;20458;-61
2021/08/01 09:16:16;;;;;;;6.57;4.97;;;20.70;99.90;;;;;;4995104;28;20847;-62
2021/08/01 09:18:44;;;;;;;6.50;4.63;;;20.70;99.90;;;;;;4995268;28;20457;-61
2021/08/01 09:21:30;;;;;;;5.13;4.73;;;20.60;99.90;;;;;;4994403;28;20978;-63
2021/08/01 09:23:56;;;;;;;5.53;5.03;;;20.60;99.90;;;;;;4995131;28;20465;-63
2021/08/01 09:26:25;;;;;;;8.87;4.67;;;20.60;99.90;;;;;;4994702;28;20454;-62
2021/08/01 09:29:02;;;;;;;4.90;4.50;;;20.60;99.90;;;;;;4995184;28;20529;-63
2021/08/01 09:31:29;;;;;;;4.93;4.53;;;20.70;99.90;;;;;;5002011;28;20473;-63
2021/08/01 09:33:56;;;;;;;4.87;4.43;;;20.70;99.90;;;;;;5008070;28;20450;-63
2021/08/01 09:36:25;;;;;;;4.37;4.07;;;20.70;99.90;;;;;;4998225;28;20484;-63
2021/08/01 09:38:52;;;;;;;4.70;4.40;;;20.70;99.90;;;;;;5006768;28;20485;-62
2021/08/01 09:41:21;;;;;;;4.53;4.23;;;20.60;99.90;;;;;;5019906;28;20479;-64
2021/08/01 09:43:51;;;;;;;4.93;4.57;;;20.60;99.90;;;;;;5021487;28;20481;-62
2021/08/01 09:46:19;;;;;;;5.83;4.50;;;20.50;99.90;;;;;;5021783;28;20453;-62
2021/08/01 09:48:46;;;;;;;6.80;4.50;;;20.40;99.90;;;;;;5006161;28;20458;-63
2021/08/01 09:51:15;;;;;;;4.70;4.30;;;20.40;99.90;;;;;;4999127;28;20482;-62
2021/08/01 09:53:42;;;;;;;7.30;5.30;;;20.40;99.90;;;;;;4999531;28;20463;-62
2021/08/01 09:56:13;;;;;;;5.47;5.07;;;20.40;99.90;;;;;;4998871;28;20460;-62
2021/08/01 09:58:40;;;;;;;5.27;4.87;;;20.20;99.90;;;;;;5000577;28;20453;-62
2021/08/01 10:01:08;;;;;;;5.70;5.20;;;20.00;99.90;;;;;;5000049;28;20488;-62
2021/08/01 10:03:36;;;;;;;7.40;5.73;;;20.00;99.90;;;;;;4999375;28;20934;-62
2021/08/01 10:06:14;;;;;;;6.53;5.77;;;20.00;99.90;;;;;;4997906;28;20463;-61
2021/08/01 10:08:42;;;;;;;5.10;4.70;;;20.00;99.90;;;;;;4997350;28;20454;-62
2021/08/01 10:11:11;;;;;;;6.00;5.50;;;20.00;99.90;;;;;;4998139;28;20512;-62
2021/08/01 10:13:39;;;;;;;5.63;5.13;;;20.00;99.90;;;;;;4998768;28;20454;-61
2021/08/01 10:16:09;;;;;;;6.53;5.40;;;20.10;99.90;;;;;;4997576;28;20458;-61
2021/08/01 10:18:37;;;;;;;5.57;5.10;;;20.20;99.90;;;;;;4997674;28;20500;-61
2021/08/01 10:21:04;;;;;;;5.73;5.23;;;20.10;99.90;;;;;;4997343;28;20477;-61
2021/08/01 10:23:36;;;;;;;5.67;5.07;;;20.10;99.90;;;;;;4997477;28;20442;-61
2021/08/01 10:26:05;;;;;;;5.83;5.33;;;20.10;99.90;;;;;;4997943;28;20473;-61
2021/08/01 10:28:33;;;;;;;5.90;5.40;;;20.10;99.90;;;;;;4997054;28;20453;-63
2021/08/01 10:31:03;;;;;;;5.80;5.30;;;20.00;99.90;;;;;;4997212;28;20488;-62
2021/08/01 10:33:38;;;;;;;5.40;5.10;;;20.10;99.90;;;;;;4996928;28;20460;-60
2021/08/01 10:36:07;;;;;;;5.87;4.87;;;20.20;99.90;;;;;;4997083;28;20511;-62
2021/08/01 10:38:38;;;;;;;7.20;5.30;;;20.30;99.90;;;;;;5004216;28;20453;-62
2021/08/01 10:41:07;;;;;;;11.60;5.40;;;20.30;99.90;;;;;;5011520;28;20474;-62
2021/08/01 10:43:36;;;;;;;5.23;4.90;;;20.30;99.90;;;;;;5005802;28;20453;-62
2021/08/01 10:46:03;;;;;;;5.67;5.17;;;20.40;99.90;;;;;;4997444;28;20907;-63
2021/08/01 10:48:31;;;;;;;5.77;5.30;;;20.40;99.90;;;;;;4997433;28;20442;-61
2021/08/01 10:51:01;;;;;;;5.63;5.20;;;20.50;99.90;;;;;;4997276;28;20481;-61
2021/08/01 10:53:29;;;;;;;7.27;4.90;;;20.60;99.90;;;;;;4997125;28;20816;-63
2021/08/01 10:56:35;;;;;;;6.87;5.80;;;20.90;99.90;;;;;;4997975;28;20461;-63
2021/08/01 10:59:02;;;;;;;5.43;4.90;;;21.00;99.90;;;;;;4994460;28;20464;-62
2021/08/01 11:01:29;;;;;;;5.67;5.00;;;21.00;99.90;;;;;;4997118;28;20478;-62
2021/08/01 11:04:32;;;;;;;5.13;4.80;;;21.10;99.90;;;;;;5006526;28;20453;-62
2021/08/01 11:07:00;;;;;;;7.23;5.20;;;21.10;99.90;;;;;;4999464;28;20905;-62
2021/08/01 11:09:27;;;;;;;6.40;4.70;;;21.20;99.90;;;;;;4996447;28;20474;-62
2021/08/01 11:12:28;;;;;;;5.00;4.60;;;21.20;99.90;;;;;;4996680;28;20509;-62
2021/08/01 11:14:55;;;;;;;5.57;5.07;;;21.30;99.90;;;;;;4997798;28;20551;-63
2021/08/01 11:18:06;;;;;;;5.53;4.93;;;21.40;99.90;;;;;;4996266;28;20774;-62
2021/08/01 11:20:49;;;;;;;5.90;5.40;;;21.60;99.90;;;;;;4996002;28;20904;-61
2021/08/01 11:23:17;;;;;;;6.87;4.47;;;21.90;99.90;;;;;;4996356;28;20476;-62
2021/08/01 11:26:06;;;;;;;4.50;4.10;;;22.10;99.90;;;;;;4996330;28;20460;-62
2021/08/01 11:28:34;;;;;;;6.03;5.30;;;22.30;99.90;;;;;;4996502;28;20511;-63
2021/08/01 11:31:22;;;;;;;5.33;4.93;;;22.50;99.90;;;;;;5003762;28;20481;-62
2021/08/01 11:33:53;;;;;;;7.73;5.33;;;22.80;99.90;;;;;;4994095;28;20458;-62
2021/08/01 11:36:23;;;;;;;4.10;3.80;;;23.10;99.90;;;;;;4996006;28;20434;-62
2021/08/01 11:39:07;;;;;;;5.00;4.50;;;23.50;99.90;;;;;;4996568;28;20486;-62
2021/08/01 11:41:38;;;;;;;7.30;4.60;;;23.70;99.90;;;;;;4996211;28;20470;-63
2021/08/01 11:44:07;;;;;;;5.33;4.67;;;23.90;99.90;;;;;;4995849;28;20445;-62
2021/08/01 11:46:59;;;;;;;5.80;4.47;;;23.80;99.90;;;;;;4995818;28;20472;-63
2021/08/01 11:49:27;;;;;;;4.57;4.27;;;23.90;99.90;;;;;;4995408;28;20457;-63
2021/08/01 11:51:55;;;;;;;5.00;3.87;;;23.80;99.90;;;;;;4995456;28;20486;-63
2021/08/01 11:54:28;;;;;;;10.70;5.87;;;24.00;99.90;;;;;;4995217;28;20508;-63
2021/08/01 11:56:57;;;;;;;5.27;4.80;;;24.20;99.90;;;;;;4994957;28;20439;-63
2021/08/01 11:59:25;;;;;;;4.10;3.80;;;24.30;99.90;;;;;;4995508;28;20458;-63
2021/08/01 12:01:53;;;;;;;9.17;4.47;;;24.40;99.90;;;;;;4995219;28;20496;-62
2021/08/01 12:04:20;;;;;;;4.63;3.80;;;24.30;99.90;;;;;;4995861;28;20492;-62
2021/08/01 12:06:47;;;;;;;4.57;4.20;;;24.10;99.90;;;;;;4995631;28;20473;-62
2021/08/01 12:09:18;;;;;;;4.23;3.80;;;24.30;99.90;;;;;;4995364;28;20461;-62
2021/08/01 12:11:47;;;;;;;7.33;4.23;;;24.50;99.90;;;;;;4996007;28;20496;-61
2021/08/01 12:14:14;;;;;;;4.50;4.10;;;24.50;99.90;;;;;;4995615;28;20966;-61
2021/08/01 12:16:59;;;;;;;4.50;4.10;;;24.70;99.90;;;;;;4995253;28;20442;-63
2021/08/01 12:19:27;;;;;;;4.93;4.33;;;24.80;99.90;;;;;;5007154;28;20541;-62
2021/08/01 12:21:57;;;;;;;5.20;4.80;;;24.80;99.90;;;;;;5018443;28;20454;-63
2021/08/01 12:24:33;;;;;;;4.43;4.13;;;24.90;99.90;;;;;;5017388;28;20429;-60
2021/08/01 12:27:04;;;;;;;5.10;4.70;;;24.90;99.90;;;;;;5004281;28;20433;-61
2021/08/01 12:29:33;;;;;;;4.90;4.50;;;24.80;99.90;;;;;;4995670;28;20438;-62
2021/08/01 12:32:01;;;;;;;5.00;3.63;;;24.60;99.90;;;;;;4995487;28;20508;-62
2021/08/01 12:34:28;;;;;;;4.27;3.87;;;24.70;99.90;;;;;;4998789;28;20453;-62
2021/08/01 12:36:55;;;;;;;5.10;3.97;;;25.00;99.90;;;;;;4999519;28;20465;-62
2021/08/01 12:39:22;;;;;;;8.53;3.70;;;25.00;99.90;;;;;;4995108;28;20460;-63
2021/08/01 12:41:50;;;;;;;4.00;3.70;;;25.10;99.90;;;;;;4994901;28;20493;-60
2021/08/01 12:44:20;;;;;;;3.93;3.60;;;25.30;99.90;;;;;;4994629;28;20453;-61
2021/08/01 12:46:47;;;;;;;3.83;3.53;;;25.50;99.90;;;;;;4994345;28;20458;-61
2021/08/01 12:49:14;;;;;;;3.40;3.20;;;25.50;99.90;;;;;;4994721;28;20473;-61
2021/08/01 12:51:43;;;;;;;3.87;3.67;;;25.70;99.90;;;;;;4994417;28;21004;-62
2021/08/01 12:54:10;;;;;;;3.30;3.10;;;25.80;99.90;;;;;;4994770;28;20970;-60
2021/08/01 12:56:37;;;;;;;3.70;3.17;;;26.10;99.90;;;;;;4994916;28;20462;-61
2021/08/01 12:59:11;;;;;;;4.00;3.70;;;25.90;99.90;;;;;;4995025;28;20507;-61
2021/08/01 13:01:43;;;;;;;4.80;3.57;;;25.40;99.90;;;;;;4994188;28;20492;-62
2021/08/01 13:04:10;;;;;;;4.03;3.83;;;25.40;99.90;;;;;;4996458;28;20434;-62
2021/08/01 13:06:37;;;;;;;4.60;4.20;;;25.30;99.90;;;;;;4997195;28;20997;-62
2021/08/01 13:09:06;;;;;;;3.60;3.30;;;25.10;99.90;;;;;;4998633;28;20449;-62
2021/08/01 13:11:34;;;;;;;3.97;3.50;;;25.10;99.90;;;;;;4998027;28;20564;-62
2021/08/01 13:14:02;;;;;;;3.43;3.20;;;25.40;99.90;;;;;;4998316;28;20460;-62
2021/08/01 13:16:49;;;;;;;3.83;3.00;;;25.70;99.90;;;;;;4998487;28;20454;-62
2021/08/01 13:19:17;;;;;;;3.17;2.97;;;25.60;99.90;;;;;;4998480;28;20429;-62
2021/08/01 13:22:02;;;;;;;3.60;3.10;;;25.70;99.90;;;;;;4998349;28;20473;-63
2021/08/01 13:24:34;;;;;;;3.27;3.07;;;25.80;99.90;;;;;;4998849;28;20449;-62
2021/08/01 13:27:01;;;;;;;2.87;2.67;;;25.70;99.90;;;;;;4998961;28;20474;-62
2021/08/01 13:29:28;;;;;;;3.53;2.27;;;25.50;99.90;;;;;;4998352;28;20477;-62
2021/08/01 13:32:05;;;;;;;2.70;2.50;;;25.30;99.90;;;;;;4998518;28;20481;-62
2021/08/01 13:34:37;;;;;;;3.00;2.63;;;25.30;99.90;;;;;;4999550;28;20442;-62
2021/08/01 13:37:15;;;;;;;2.50;2.40;;;25.10;99.90;;;;;;4998981;28;20442;-62
2021/08/01 13:39:49;;;;;;;3.07;2.87;;;25.00;99.90;;;;;;4998096;28;20926;-62
2021/08/01 13:42:18;;;;;;;2.93;2.73;;;24.90;99.90;;;;;;4998298;28;20476;-63
2021/08/01 13:45:03;;;;;;;3.13;2.67;;;24.80;99.90;;;;;;4998786;28;20453;-62
2021/08/01 13:47:33;;;;;;;3.53;2.40;;;24.90;99.90;;;;;;4998099;28;20448;-62
2021/08/01 13:50:04;;;;;;;3.00;2.80;;;25.20;99.90;;;;;;4998235;28;20504;-62
2021/08/01 13:52:32;;;;;;;2.77;2.57;;;25.60;99.90;;;;;;4997693;28;20624;-61
2021/08/01 13:54:59;;;;;;;2.67;2.47;;;26.10;99.90;;;;;;4999728;28;20453;-63
2021/08/01 13:57:27;;;;;;;2.77;2.67;;;26.30;99.90;;;;;;4998458;28;20488;-62
2021/08/01 13:59:55;;;;;;;2.13;1.90;;;26.60;99.90;;;;;;4998052;28;20454;-62
2021/08/01 14:02:22;;;;;;;4.43;2.70;;;26.70;99.60;;;;;;4997650;28;20485;-62
2021/08/01 14:04:51;;;;;;;1.80;1.70;;;26.90;99.70;;;;;;4998111;28;20449;-61
2021/08/01 14:07:18;;;;;;;1.97;1.80;;;26.80;95.50;;;;;;5012812;28;20461;-62
2021/08/01 14:09:45;;;;;;;2.20;2.10;;;27.00;98.70;;;;;;4997604;28;20453;-61
2021/08/01 14:12:12;;;;;;;2.23;2.13;;;27.10;97.70;;;;;;4999460;28;20849;-61
2021/08/01 14:14:39;;;;;;;2.40;2.20;;;27.10;97.40;;;;;;4999762;28;20871;-62
2021/08/01 14:17:07;;;;;;;2.40;2.23;;;27.10;97.40;;;;;;4998652;28;20480;-62
2021/08/01 14:19:34;;;;;;;1.80;1.73;;;27.00;96.50;;;;;;4996721;28;20458;-62
2021/08/01 14:22:03;;;;;;;2.47;2.27;;;27.00;98.00;;;;;;4997885;28;20473;-62
2021/08/01 14:24:30;;;;;;;2.27;2.17;;;26.70;97.20;;;;;;4997348;28;20454;-62
2021/08/01 14:26:58;;;;;;;2.23;2.13;;;26.70;99.20;;;;;;4998514;28;20796;-62
2021/08/01 14:29:27;;;;;;;2.83;2.30;;;26.80;96.70;;;;;;4997723;28;20446;-63
2021/08/01 14:31:55;;;;;;;4.20;2.17;;;26.70;97.50;;;;;;4997719;28;20485;-60
2021/08/01 14:34:24;;;;;;;1.67;1.57;;;26.50;98.00;;;;;;4997436;28;20461;-61
2021/08/01 14:36:52;;;;;;;1.60;1.60;;;26.60;97.80;;;;;;4997118;28;20454;-63
2021/08/01 14:39:20;;;;;;;1.47;1.43;;;26.60;95.20;;;;;;4998427;28;20520;-63
2021/08/01 14:41:49;;;;;;;1.40;1.40;;;26.50;95.00;;;;;;4997608;28;21006;-62
2021/08/01 14:44:18;;;;;;;1.60;1.50;;;26.40;96.50;;;;;;4997460;28;20469;-62
2021/08/01 14:46:45;;;;;;;1.80;1.70;;;26.40;97.30;;;;;;5001467;28;20458;-60
2021/08/01 14:49:18;;;;;;;1.70;1.60;;;26.50;96.20;;;;;;5000768;28;20466;-63
2021/08/01 14:54:32;;;;;;;1.60;1.57;;;26.10;96.30;;;;;;5004610;28;20421;-62
2021/08/01 14:57:13;;;;;;;1.67;1.57;;;25.80;95.80;;;;;;5012025;28;20457;-62
2021/08/01 14:59:42;;;;;;;2.10;1.90;;;25.50;95.90;;;;;;5012106;28;20444;-63
2021/08/01 15:02:28;;;;;;;19.27;17.37;;;25.20;96.50;;;;;;4996583;28;20490;-63
2021/08/01 15:05:03;;;;;;;10.43;9.63;;;24.90;96.50;;;;;;4996908;28;20492;-62
2021/08/01 15:07:36;;;;;;;1.70;1.70;;;24.30;96.70;;;;;;4997285;28;20477;-63
2021/08/01 15:10:10;;;;;;;2.17;2.03;;;24.00;95.70;;;;;;4997285;28;20461;-63
2021/08/01 15:12:41;;;;;;;1.33;1.33;;;23.60;95.80;;;;;;4997674;28;20485;-63
2021/08/01 15:15:09;;;;;;;1.93;1.83;;;23.40;98.70;;;;;;4996796;28;20438;-62
2021/08/01 15:17:37;;;;;;;1.80;1.80;;;23.20;97.90;;;;;;4996981;28;20452;-62
2021/08/01 15:20:07;;;;;;;2.03;1.77;;;23.10;98.40;;;;;;4998615;28;20791;-62
2021/08/01 15:22:48;;;;;;;1.67;1.57;;;23.10;97.90;;;;;;5018631;28;20496;-62
2021/08/01 15:25:18;;;;;;;1.80;1.70;;;22.90;98.50;;;;;;5016656;28;20442;-62
2021/08/01 15:27:46;;;;;;;1.90;1.80;;;23.00;99.10;;;;;;5016784;28;20418;-62
2021/08/01 15:30:14;;;;;;;1.40;1.40;;;23.00;99.40;;;;;;5005114;28;20454;-62
2021/08/01 15:32:43;;;;;;;1.90;1.77;;;23.00;98.40;;;;;;4995904;28;20505;-62
2021/08/01 15:35:11;;;;;;;1.83;1.73;;;23.00;99.10;;;;;;4998820;28;20528;-62
2021/08/01 15:37:40;;;;;;;1.70;1.60;;;22.90;98.50;;;;;;5014595;28;20951;-62
2021/08/01 15:40:09;;;;;;;1.80;1.50;;;23.00;99.70;;;;;;4996460;28;20500;-62
2021/08/01 15:42:41;;;;;;;1.97;1.77;;;23.00;98.20;;;;;;4995790;28;20474;-62
2021/08/01 15:45:09;;;;;;;1.70;1.60;;;23.10;98.60;;;;;;4995828;28;20445;-62
2021/08/01 15:47:38;;;;;;;1.60;1.50;;;23.00;98.00;;;;;;4995940;28;20476;-62
2021/08/01 15:50:06;;;;;;;1.47;1.37;;;23.10;99.50;;;;;;4995743;28;20464;-62
2021/08/01 15:52:42;;;;;;;1.53;1.43;;;23.10;98.30;;;;;;4995391;28;20986;-62
2021/08/01 15:55:12;;;;;;;1.80;1.70;;;23.00;98.30;;;;;;4996048;28;20878;-62
2021/08/01 15:57:44;;;;;;;1.77;1.47;;;23.00;98.10;;;;;;4996717;28;20500;-62
2021/08/01 16:00:15;;;;;;;1.70;1.60;;;22.90;97.30;;;;;;4995856;28;20450;-62
2021/08/01 16:03:16;;;;;;;4.00;1.80;;;22.80;97.80;;;;;;4995582;28;20426;-62
2021/08/01 16:05:47;;;;;;;1.73;1.63;;;22.80;97.90;;;;;;4995896;28;20839;-62
2021/08/01 16:08:23;;;;;;;1.80;1.70;;;22.80;97.60;;;;;;4995535;28;20434;-62
2021/08/01 16:10:58;;;;;;;1.87;1.77;;;22.80;97.60;;;;;;4996458;28;20475;-62
2021/08/01 16:13:31;;;;;;;1.97;1.87;;;22.70;97.60;;;;;;5001237;28;20504;-62
2021/08/01 16:16:02;;;;;;;2.17;2.07;;;22.60;97.20;;;;;;4996674;28;20442;-62
2021/08/01 16:18:30;;;;;;;2.07;1.97;;;22.70;97.90;;;;;;4995444;28;20501;-62
2021/08/01 16:20:59;;;;;;;2.97;2.77;;;22.70;97.40;;;;;;4995173;28;20832;-62
2021/08/01 16:23:27;;;;;;;2.47;1.90;;;22.60;97.70;;;;;;5000206;28;20449;-62
2021/08/01 16:25:55;;;;;;;2.00;1.90;;;22.80;97.90;;;;;;5003628;28;20454;-63
2021/08/01 16:28:22;;;;;;;2.97;1.97;;;22.90;97.60;;;;;;4999421;28;20450;-63
2021/08/01 16:30:51;;;;;;;2.37;2.20;;;22.90;97.90;;;;;;4994986;28;20841;-62
2021/08/01 16:33:18;;;;;;;1.87;1.77;;;22.90;97.20;;;;;;4995558;28;20478;-63
2021/08/01 16:35:45;;;;;;;1.97;1.50;;;23.00;97.50;;;;;;4995131;28;20461;-62
2021/08/01 16:38:12;;;;;;;1.90;1.80;;;23.00;97.90;;;;;;4995149;28;20480;-62
2021/08/01 16:41:02;;;;;;;1.70;1.60;;;23.00;98.90;;;;;;4994747;28;20496;-62
2021/08/01 16:43:35;;;;;;;2.03;1.63;;;22.70;99.90;;;;;;4995153;28;20500;-62
2021/08/01 16:46:12;;;;;;;1.73;1.63;;;22.50;99.90;;;;;;4994628;28;20469;-62
2021/08/01 16:48:48;;;;;;;1.77;1.73;;;22.30;99.90;;;;;;4994796;28;20445;-62
2021/08/01 16:51:21;;;;;;;1.80;1.70;;;22.30;99.90;;;;;;4994648;28;20977;-62
2021/08/01 16:53:58;;;;;;;2.23;1.67;;;22.10;99.90;;;;;;4995393;28;20807;-62
2021/08/01 16:56:32;;;;;;;1.70;1.60;;;21.90;99.90;;;;;;4994906;28;20445;-62
2021/08/01 16:59:03;;;;;;;1.60;1.60;;;21.60;99.90;;;;;;4995208;28;20442;-63